createdAt,value
2024-02-08T00:01:18.160Z,79.65
2024-02-08T00:03:45.041Z,79.84
2024-02-08T00:06:12.141Z,79.58
2024-02-08T00:08:38.987Z,79.71
2024-02-08T00:11:07.824Z,79.79
2024-02-08T00:13:35.880Z,79.90
2024-02-08T00:16:02.852Z,79.87
2024-02-08T00:18:29.805Z,79.92
2024-02-08T00:20:56.766Z,79.80
2024-02-08T00:23:23.656Z,79.75
2024-02-08T00:25:51.895Z,79.89
2024-02-08T00:28:18.876Z,80.10
2024-02-08T00:30:46.783Z,80.30
2024-02-08T00:33:14.033Z,80.33
2024-02-08T00:35:41.121Z,80.11
2024-02-08T00:38:08.244Z,80.45
2024-02-08T00:40:35.222Z,80.15
2024-02-08T00:43:07.867Z,80.11
2024-02-08T00:45:35.614Z,80.01
2024-02-08T00:48:03.433Z,80.12
2024-02-08T00:50:30.318Z,80.09
2024-02-08T00:52:58.424Z,80.23
2024-02-08T00:55:27.566Z,80.04
2024-02-08T00:57:56.066Z,80.03
2024-02-08T01:00:22.978Z,80.15
2024-02-08T01:02:49.822Z,80.11
2024-02-08T01:05:16.880Z,79.71
2024-02-08T01:07:43.978Z,80.19
2024-02-08T01:10:10.826Z,80.09
2024-02-08T01:12:37.750Z,80.23
2024-02-08T01:15:05.778Z,80.26
2024-02-08T01:17:33.792Z,80.50
2024-02-08T01:20:03.068Z,80.25
2024-02-08T01:22:30.442Z,80.64
2024-02-08T01:24:57.428Z,80.24
2024-02-08T01:27:24.552Z,80.38
2024-02-08T01:29:51.931Z,80.36
2024-02-08T01:32:19.421Z,80.67
2024-02-08T01:34:46.737Z,80.58
2024-02-08T01:37:16.489Z,80.72
2024-02-08T01:39:45.218Z,80.75
2024-02-08T01:42:15.989Z,80.85
2024-02-08T01:44:47.859Z,80.57
2024-02-08T01:47:19.054Z,80.67
2024-02-08T01:49:48.921Z,81.01
2024-02-08T01:52:20.752Z,80.87
2024-02-08T01:54:50.857Z,80.70
2024-02-08T01:57:18.427Z,80.96
2024-02-08T01:59:54.639Z,80.84
2024-02-08T02:02:25.446Z,80.58
2024-02-08T02:04:52.444Z,80.46
2024-02-08T02:07:21.100Z,80.70
2024-02-08T02:09:48.229Z,80.55
2024-02-08T02:12:19.016Z,80.73
2024-02-08T02:14:46.427Z,81.00
2024-02-08T02:17:20.448Z,80.54
2024-02-08T02:19:50.719Z,80.81
2024-02-08T02:22:20.729Z,80.52
2024-02-08T02:24:51.580Z,80.58
2024-02-08T02:27:19.319Z,80.74
2024-02-08T02:29:46.398Z,80.90
2024-02-08T02:32:17.279Z,80.55
2024-02-08T02:34:48.253Z,80.77
2024-02-08T02:37:16.083Z,80.95
2024-02-08T02:39:43.041Z,80.64
2024-02-08T02:42:10.461Z,80.76
2024-02-08T02:44:37.338Z,80.88
2024-02-08T02:47:07.541Z,81.08
2024-02-08T02:49:38.653Z,81.13
2024-02-08T02:52:10.928Z,81.24
2024-02-08T02:54:38.222Z,81.21
2024-02-08T02:57:05.342Z,81.46
2024-02-08T02:59:32.414Z,81.42
2024-02-08T03:01:59.537Z,81.42
2024-02-08T03:04:29.821Z,81.24
2024-02-08T03:06:57.027Z,81.50
2024-02-08T03:09:29.697Z,81.52
2024-02-08T03:11:59.952Z,81.35
2024-02-08T03:14:27.351Z,81.60
2024-02-08T03:16:58.062Z,81.47
2024-02-08T03:19:25.151Z,81.27
2024-02-08T03:21:52.075Z,81.66
2024-02-08T03:24:21.042Z,81.34
2024-02-08T03:26:48.679Z,81.77
2024-02-08T03:29:17.770Z,81.56
2024-02-08T03:31:48.078Z,81.75
2024-02-08T03:34:21.189Z,82.04
2024-02-08T03:36:48.240Z,81.90
2024-02-08T03:39:26.741Z,81.98
2024-02-08T03:42:03.160Z,81.80
2024-02-08T03:44:35.616Z,81.76
2024-02-08T03:47:13.834Z,82.31
2024-02-08T03:49:42.400Z,82.17
2024-02-08T03:52:12.024Z,81.97
2024-02-08T03:54:40.046Z,82.17
2024-02-08T03:57:07.741Z,82.03
2024-02-08T03:59:35.680Z,82.24
2024-02-08T04:02:04.809Z,82.02
2024-02-08T04:04:52.044Z,82.28
2024-02-08T04:07:44.824Z,81.98
2024-02-08T04:10:41.006Z,81.94
2024-02-08T04:13:26.466Z,82.16
2024-02-08T04:16:11.971Z,82.05
2024-02-08T04:18:57.375Z,82.46
2024-02-08T04:21:42.845Z,82.19
2024-02-08T04:24:28.241Z,82.02
2024-02-08T04:27:13.506Z,82.30
2024-02-08T04:29:58.971Z,82.22
2024-02-08T04:32:44.413Z,82.27
2024-02-08T04:35:36.315Z,82.07
2024-02-08T04:38:22.200Z,82.12
2024-02-08T04:41:07.884Z,82.24
2024-02-08T04:43:53.530Z,82.25
2024-02-08T04:46:45.580Z,82.64
2024-02-08T04:49:33.993Z,82.59
2024-02-08T04:52:19.737Z,82.33
2024-02-08T04:54:46.524Z,82.62
2024-02-08T04:57:13.339Z,82.36
2024-02-08T04:59:46.804Z,82.64
2024-02-08T05:02:15.663Z,82.51
2024-02-08T05:04:44.629Z,82.76
2024-02-08T05:07:12.170Z,82.81
2024-02-08T05:09:41.631Z,82.80
2024-02-08T05:12:12.624Z,82.87
2024-02-08T05:14:40.029Z,83.02
2024-02-08T05:17:10.853Z,82.95
2024-02-08T05:19:41.607Z,82.66
2024-02-08T05:22:08.657Z,82.82
2024-02-08T05:24:35.472Z,82.81
2024-02-08T05:27:03.385Z,82.92
2024-02-08T05:29:30.906Z,82.92
2024-02-08T05:31:59.409Z,83.25
2024-02-08T05:34:27.374Z,82.94
2024-02-08T05:36:57.043Z,82.75
2024-02-08T05:39:29.445Z,83.34
2024-02-08T05:41:58.151Z,83.04
2024-02-08T05:44:32.253Z,83.25
2024-02-08T05:47:09.698Z,83.06
2024-02-08T05:49:38.390Z,83.18
2024-02-08T05:52:08.366Z,83.26
2024-02-08T05:54:38.688Z,82.90
2024-02-08T05:57:08.713Z,83.21
2024-02-08T05:59:39.067Z,83.07
2024-02-08T06:02:25.497Z,83.19
2024-02-08T06:05:02.783Z,83.41
2024-02-08T06:07:32.664Z,83.11
2024-02-08T06:10:09.881Z,83.05
2024-02-08T06:12:47.881Z,83.04
2024-02-08T06:15:27.623Z,83.15
2024-02-08T06:18:06.071Z,82.93
2024-02-08T06:20:44.993Z,83.01
2024-02-08T06:23:20.448Z,83.33
2024-02-08T06:26:10.183Z,83.13
2024-02-08T06:28:48.455Z,83.14
2024-02-08T06:31:16.795Z,83.31
2024-02-08T06:34:04.913Z,83.38
2024-02-08T06:36:35.741Z,83.12
2024-02-08T06:39:24.318Z,83.20
2024-02-08T06:41:57.054Z,83.46
2024-02-08T06:44:38.885Z,83.17
2024-02-08T06:47:25.449Z,83.31
2024-02-08T06:50:13.201Z,83.36
2024-02-08T06:52:58.690Z,83.56
2024-02-08T06:55:44.089Z,83.10
2024-02-08T06:58:29.462Z,83.37
2024-02-08T07:01:14.961Z,83.39
2024-02-08T07:04:00.427Z,83.50
2024-02-08T07:06:45.904Z,83.18
2024-02-08T07:09:31.330Z,83.18
2024-02-08T07:12:16.731Z,83.38
2024-02-08T07:15:02.148Z,83.40
2024-02-08T07:17:47.675Z,83.29
2024-02-08T07:20:33.147Z,83.41
2024-02-08T07:23:18.992Z,83.30
2024-02-08T07:26:04.374Z,83.48
2024-02-08T07:29:03.475Z,83.35
2024-02-08T07:31:48.996Z,83.32
2024-02-08T07:34:34.429Z,83.34
2024-02-08T07:37:19.669Z,83.23
2024-02-08T07:40:02.870Z,83.39
2024-02-08T07:42:43.394Z,83.22
2024-02-08T07:45:14.509Z,83.35
2024-02-08T07:47:41.965Z,83.14
2024-02-08T07:50:10.024Z,83.17
2024-02-08T07:52:57.184Z,83.00
2024-02-08T07:55:34.674Z,83.39
2024-02-08T07:58:09.617Z,83.29
2024-02-08T08:00:39.465Z,83.22
2024-02-08T08:03:10.807Z,83.08
2024-02-08T08:05:43.205Z,83.31
2024-02-08T08:08:26.465Z,82.71
2024-02-08T08:10:58.424Z,82.63
2024-02-08T08:13:45.604Z,82.77
2024-02-08T08:16:31.227Z,82.77
2024-02-08T08:19:11.701Z,82.82
2024-02-08T08:22:00.787Z,82.75
2024-02-08T08:24:28.190Z,82.63
2024-02-08T08:27:08.344Z,82.17
2024-02-08T08:29:45.216Z,82.43
2024-02-08T08:32:31.561Z,82.18
2024-02-08T08:35:24.871Z,82.23
2024-02-08T08:38:10.322Z,81.59
2024-02-08T08:40:41.090Z,81.27
2024-02-08T08:43:21.025Z,81.14
2024-02-08T08:45:52.243Z,81.09
2024-02-08T08:48:23.352Z,80.58
2024-02-08T08:50:56.927Z,80.37
2024-02-08T08:53:37.414Z,80.39
2024-02-08T08:56:12.679Z,80.07
2024-02-08T08:58:41.440Z,80.02
2024-02-08T09:01:17.973Z,80.23
2024-02-08T09:03:58.321Z,79.97
2024-02-08T09:06:28.839Z,79.71
2024-02-08T09:08:58.448Z,79.97
2024-02-08T09:11:26.853Z,79.57
2024-02-08T09:13:54.901Z,79.36
2024-02-08T09:16:25.933Z,79.22
2024-02-08T09:19:01.094Z,79.16
2024-02-08T09:21:33.919Z,79.03
2024-02-08T09:24:05.537Z,79.03
2024-02-08T09:26:49.909Z,78.93
2024-02-08T09:29:31.281Z,79.09
2024-02-08T09:32:01.595Z,78.84
2024-02-08T09:34:41.602Z,78.60
2024-02-08T09:37:10.121Z,78.54
2024-02-08T09:39:55.321Z,78.53
2024-02-08T09:42:31.111Z,78.14
2024-02-08T09:45:15.815Z,78.25
2024-02-08T09:47:53.686Z,78.21
2024-02-08T09:50:37.716Z,78.03
2024-02-08T09:53:29.135Z,77.90
2024-02-08T09:56:06.972Z,77.46
2024-02-08T09:58:54.145Z,77.64
2024-02-08T10:01:36.644Z,77.25
2024-02-08T10:04:07.548Z,77.18
2024-02-08T10:06:47.433Z,77.32
2024-02-08T10:09:34.485Z,77.51
2024-02-08T10:12:09.028Z,76.90
2024-02-08T10:14:36.755Z,76.81
2024-02-08T10:17:25.946Z,75.98
2024-02-08T10:20:15.387Z,76.14
2024-02-08T10:22:55.226Z,74.29
2024-02-08T10:25:45.375Z,74.54
2024-02-08T10:28:15.119Z,74.33
2024-02-08T10:30:46.088Z,74.08
2024-02-08T10:33:16.853Z,74.28
2024-02-08T10:35:44.042Z,73.58
2024-02-08T10:38:53.516Z,72.33
2024-02-08T10:41:28.664Z,71.58
2024-02-08T10:43:58.754Z,71.46
2024-02-08T10:46:33.694Z,71.32
2024-02-08T10:49:10.800Z,71.31
2024-02-08T10:51:38.545Z,71.19
2024-02-08T10:54:10.064Z,71.31
2024-02-08T10:56:49.280Z,71.08
2024-02-08T10:59:25.279Z,70.68
2024-02-08T11:01:52.779Z,70.32
2024-02-08T11:04:30.648Z,70.23
2024-02-08T11:07:22.968Z,70.18
2024-02-08T11:09:49.921Z,70.10
2024-02-08T11:12:32.770Z,69.75
2024-02-08T11:15:14.703Z,69.86
2024-02-08T11:17:51.243Z,69.73
2024-02-08T11:20:44.099Z,70.28
2024-02-08T11:23:25.236Z,70.61
2024-02-08T11:25:55.401Z,70.64
2024-02-08T11:28:29.558Z,71.04
2024-02-08T11:30:56.769Z,71.23
2024-02-08T11:33:34.599Z,71.48
2024-02-08T11:36:14.627Z,71.76
2024-02-08T11:38:55.500Z,71.73
2024-02-08T11:41:27.394Z,72.24
2024-02-08T11:44:05.116Z,72.78
2024-02-08T11:46:40.000Z,73.18
2024-02-08T11:49:17.836Z,72.96
2024-02-08T11:51:50.621Z,73.00
2024-02-08T11:54:24.610Z,73.07
2024-02-08T11:56:53.235Z,72.85
2024-02-08T11:59:21.615Z,72.58
2024-02-08T12:01:50.974Z,72.15
2024-02-08T12:04:18.172Z,71.71
2024-02-08T12:06:47.833Z,71.59
2024-02-08T12:09:30.050Z,71.63
2024-02-08T12:11:56.907Z,71.64
2024-02-08T12:14:28.048Z,71.54
2024-02-08T12:16:59.092Z,71.64
2024-02-08T12:19:29.860Z,71.49
2024-02-08T12:22:00.627Z,71.69
2024-02-08T12:24:33.580Z,71.63
2024-02-08T12:27:16.780Z,71.46
2024-02-08T12:29:47.010Z,71.75
2024-02-08T12:32:18.050Z,71.50
2024-02-08T12:34:50.106Z,71.74
2024-02-08T12:37:21.124Z,71.88
2024-02-08T12:39:51.243Z,71.62
2024-02-08T12:42:19.905Z,71.47
2024-02-08T12:44:50.933Z,71.71
2024-02-08T12:47:19.375Z,71.77
2024-02-08T12:49:48.911Z,71.90
2024-02-08T12:52:18.493Z,71.94
2024-02-08T12:54:54.624Z,71.93
2024-02-08T12:57:23.671Z,71.78
2024-02-08T13:00:03.895Z,71.92
2024-02-08T13:02:35.051Z,71.99
2024-02-08T13:05:05.128Z,71.81
2024-02-08T13:07:36.414Z,71.96
2024-02-08T13:10:16.504Z,71.78
2024-02-08T13:12:46.284Z,71.75
2024-02-08T13:15:23.275Z,71.59
2024-02-08T13:17:52.591Z,71.87
2024-02-08T13:20:20.311Z,71.82
2024-02-08T13:22:48.696Z,71.75
2024-02-08T13:25:17.565Z,71.74
2024-02-08T13:27:51.742Z,71.72
2024-02-08T13:30:18.892Z,71.99
2024-02-08T13:32:50.942Z,72.20
2024-02-08T13:35:20.843Z,72.24
2024-02-08T13:37:55.612Z,72.65
2024-02-08T13:40:24.555Z,72.52
2024-02-08T13:43:01.001Z,72.61
2024-02-08T13:45:33.579Z,72.53
2024-02-08T13:48:03.057Z,72.59
2024-02-08T13:50:32.523Z,72.63
2024-02-08T13:53:05.332Z,72.85
2024-02-08T13:55:45.879Z,72.91
2024-02-08T13:58:20.252Z,72.97
2024-02-08T14:00:48.205Z,73.00
2024-02-08T14:03:24.795Z,72.99
2024-02-08T14:05:53.960Z,73.47
2024-02-08T14:08:25.724Z,73.44
2024-02-08T14:10:52.991Z,73.66
2024-02-08T14:13:31.280Z,73.64
2024-02-08T14:16:02.397Z,73.84
2024-02-08T14:18:34.375Z,73.79
2024-02-08T14:21:03.387Z,73.74
2024-02-08T14:23:50.957Z,73.88
2024-02-08T14:26:18.180Z,73.76
2024-02-08T14:28:48.588Z,73.71
2024-02-08T14:31:16.921Z,74.21
2024-02-08T14:33:47.591Z,73.66
2024-02-08T14:36:15.680Z,73.98
2024-02-08T14:38:46.862Z,74.07
2024-02-08T14:41:28.100Z,74.24
2024-02-08T14:43:56.670Z,74.50
2024-02-08T14:46:27.816Z,74.32
2024-02-08T14:48:55.783Z,74.30
2024-02-08T14:51:25.704Z,74.69
2024-02-08T14:53:59.510Z,75.05
2024-02-08T14:56:26.775Z,75.05
2024-02-08T14:59:10.808Z,75.46
2024-02-08T15:01:43.586Z,75.31
2024-02-08T15:04:18.941Z,75.92
2024-02-08T15:07:07.710Z,75.79
2024-02-08T15:09:36.331Z,75.88
2024-02-08T15:12:23.022Z,75.94
2024-02-08T15:14:50.169Z,76.32
2024-02-08T15:17:20.358Z,76.65
2024-02-08T15:19:48.451Z,76.47
2024-02-08T15:22:41.319Z,76.93
2024-02-08T15:25:08.772Z,76.71
2024-02-08T15:27:49.666Z,76.87
2024-02-08T15:30:18.668Z,76.75
2024-02-08T15:32:59.999Z,77.16
2024-02-08T15:35:47.572Z,77.34
2024-02-08T15:38:21.161Z,77.29
2024-02-08T15:40:57.107Z,77.42
2024-02-08T15:43:27.279Z,77.73
2024-02-08T15:45:55.933Z,77.78
2024-02-08T15:48:35.744Z,77.80
2024-02-08T15:51:10.672Z,77.98
2024-02-08T15:53:50.943Z,77.83
2024-02-08T15:56:21.057Z,78.05
2024-02-08T15:58:54.628Z,77.85
2024-02-08T16:01:41.858Z,78.17
2024-02-08T16:04:29.155Z,78.09
2024-02-08T16:06:56.482Z,77.95
2024-02-08T16:09:27.779Z,78.20
2024-02-08T16:12:01.683Z,78.34
2024-02-08T16:14:30.574Z,78.01
2024-02-08T16:17:08.787Z,78.38
2024-02-08T16:19:52.679Z,78.58
2024-02-08T16:22:25.860Z,78.42
2024-02-08T16:24:53.808Z,78.47
2024-02-08T16:27:21.140Z,78.59
2024-02-08T16:30:06.997Z,78.31
2024-02-08T16:32:40.762Z,78.66
2024-02-08T16:35:26.336Z,78.62
2024-02-08T16:37:53.355Z,78.45
2024-02-08T16:40:31.317Z,78.69
2024-02-08T16:43:12.044Z,78.65
2024-02-08T16:45:59.564Z,78.71
2024-02-08T16:48:34.748Z,78.92
2024-02-08T16:51:11.115Z,78.94
2024-02-08T16:53:41.291Z,78.68
2024-02-08T16:56:12.080Z,78.66
2024-02-08T16:58:39.822Z,79.14
2024-02-08T17:01:20.394Z,78.95
2024-02-08T17:04:13.744Z,78.58
2024-02-08T17:07:00.074Z,78.66
2024-02-08T17:09:35.282Z,79.10
2024-02-08T17:12:06.697Z,78.80
2024-02-08T17:14:48.233Z,78.76
2024-02-08T17:17:15.490Z,79.00
2024-02-08T17:19:48.340Z,79.31
2024-02-08T17:22:34.337Z,79.23
2024-02-08T17:25:13.247Z,79.21
2024-02-08T17:27:50.681Z,79.42
2024-02-08T17:30:38.229Z,79.32
2024-02-08T17:33:13.130Z,79.38
2024-02-08T17:35:41.615Z,79.41
2024-02-08T17:38:08.638Z,79.44
2024-02-08T17:40:35.781Z,79.68
2024-02-08T17:43:12.075Z,79.93
2024-02-08T17:45:57.800Z,79.72
2024-02-08T17:48:30.261Z,79.95
2024-02-08T17:51:00.310Z,80.17
2024-02-08T17:53:29.435Z,80.27
2024-02-08T17:55:56.500Z,80.03
2024-02-08T17:58:26.328Z,80.19
2024-02-08T18:00:53.502Z,80.31
2024-02-08T18:03:27.289Z,80.24
2024-02-08T18:05:57.153Z,80.68
2024-02-08T18:08:27.610Z,80.71
2024-02-08T18:10:54.846Z,80.64
2024-02-08T18:13:28.184Z,80.92
2024-02-08T18:15:55.667Z,80.95
2024-02-08T18:18:25.744Z,80.96
2024-02-08T18:20:59.650Z,80.64
2024-02-08T18:23:30.700Z,81.12
2024-02-08T18:25:57.566Z,80.91
2024-02-08T18:28:27.106Z,80.98
2024-02-08T18:31:01.619Z,80.90
2024-02-08T18:33:29.344Z,81.13
2024-02-08T18:35:59.613Z,80.86
2024-02-08T18:38:27.362Z,81.08
2024-02-08T18:41:02.637Z,80.91
2024-02-08T18:43:29.823Z,81.25
2024-02-08T18:45:57.370Z,81.06
2024-02-08T18:48:25.033Z,80.71
2024-02-08T18:50:53.875Z,80.77
2024-02-08T18:53:21.262Z,80.91
2024-02-08T18:55:52.758Z,81.12
2024-02-08T18:58:20.453Z,81.14
2024-02-08T19:00:51.276Z,81.07
2024-02-08T19:03:21.870Z,81.23
2024-02-08T19:05:50.500Z,81.16
2024-02-08T19:08:21.714Z,81.24
2024-02-08T19:10:54.071Z,80.85
2024-02-08T19:13:28.931Z,81.16
2024-02-08T19:16:03.303Z,80.90
2024-02-08T19:18:45.731Z,80.76
2024-02-08T19:21:16.854Z,80.97
2024-02-08T19:23:46.984Z,80.89
2024-02-08T19:26:23.578Z,80.62
2024-02-08T19:28:54.264Z,81.12
2024-02-08T19:31:25.290Z,81.00
2024-02-08T19:33:53.816Z,81.24
2024-02-08T19:36:24.530Z,80.80
2024-02-08T19:38:55.914Z,81.33
2024-02-08T19:41:23.517Z,81.41
2024-02-08T19:43:50.688Z,81.23
2024-02-08T19:46:18.771Z,81.33
2024-02-08T19:49:03.121Z,81.50
2024-02-08T19:51:32.387Z,81.42
2024-02-08T19:54:00.531Z,81.51
2024-02-08T19:56:35.095Z,81.38
2024-02-08T19:59:06.638Z,81.19
2024-02-08T20:01:37.643Z,81.42
2024-02-08T20:04:06.118Z,81.29
2024-02-08T20:06:35.638Z,81.18
2024-02-08T20:09:09.554Z,81.33
2024-02-08T20:11:40.488Z,81.56
2024-02-08T20:14:07.838Z,81.30
2024-02-08T20:16:37.290Z,81.45
2024-02-08T20:19:10.663Z,81.36
2024-02-08T20:21:39.328Z,81.29
2024-02-08T20:24:13.118Z,81.70
2024-02-08T20:26:44.222Z,81.30
2024-02-08T20:29:16.077Z,81.63
2024-02-08T20:31:46.500Z,81.20
2024-02-08T20:34:14.486Z,81.14
2024-02-08T20:36:41.577Z,81.42
2024-02-08T20:39:19.735Z,81.28
2024-02-08T20:41:50.971Z,81.36
2024-02-08T20:44:19.200Z,81.49
2024-02-08T20:46:49.976Z,81.64
2024-02-08T20:49:22.103Z,81.70
2024-02-08T20:51:49.728Z,81.43
2024-02-08T20:54:16.636Z,81.53
2024-02-08T20:56:44.786Z,81.37
2024-02-08T20:59:12.106Z,81.74
2024-02-08T21:01:39.044Z,81.65
2024-02-08T21:04:11.964Z,81.55
2024-02-08T21:06:41.869Z,81.43
2024-02-08T21:09:11.134Z,81.36
2024-02-08T21:11:37.947Z,81.48
2024-02-08T21:14:05.393Z,81.26
2024-02-08T21:16:33.355Z,81.22
2024-02-08T21:19:02.789Z,81.56
2024-02-08T21:21:33.239Z,81.61
2024-02-08T21:24:00.791Z,81.60
2024-02-08T21:26:27.939Z,81.19
2024-02-08T21:28:55.433Z,81.51
2024-02-08T21:31:22.351Z,81.35
2024-02-08T21:33:53.752Z,81.69
2024-02-08T21:36:22.575Z,81.53
2024-02-08T21:38:52.181Z,81.62
2024-02-08T21:41:19.586Z,81.72
2024-02-08T21:43:49.121Z,82.01
2024-02-08T21:46:18.792Z,81.85
2024-02-08T21:48:48.061Z,82.17
2024-02-08T21:51:17.146Z,81.99
2024-02-08T21:53:43.998Z,82.08
2024-02-08T21:56:15.676Z,82.28
2024-02-08T21:58:44.605Z,82.14
2024-02-08T22:03:55.853Z,81.99
2024-02-08T22:06:26.640Z,82.17
2024-02-08T22:08:53.529Z,82.43
2024-02-08T22:11:20.604Z,82.77
2024-02-08T22:13:47.503Z,82.53
2024-02-08T22:16:23.461Z,82.59
2024-02-08T22:18:50.445Z,82.93
2024-02-08T22:21:18.035Z,83.29
2024-02-08T22:23:45.618Z,83.08
2024-02-08T22:26:14.098Z,83.45
2024-02-08T22:28:42.916Z,83.09
2024-02-08T22:31:12.530Z,83.54
2024-02-08T22:33:39.956Z,83.34
2024-02-08T22:36:07.991Z,83.38
2024-02-08T22:38:34.895Z,83.52
2024-02-08T22:41:01.793Z,83.38
2024-02-08T22:43:28.811Z,83.71
2024-02-08T22:45:56.245Z,83.59
2024-02-08T22:48:23.478Z,83.34
2024-02-08T22:50:52.604Z,83.60
2024-02-08T22:53:21.272Z,83.69
2024-02-08T22:55:52.276Z,83.61
2024-02-08T22:58:21.247Z,83.71
2024-02-08T23:00:50.218Z,83.84
2024-02-08T23:03:18.440Z,83.97
2024-02-08T23:05:51.916Z,83.54
2024-02-08T23:08:18.737Z,83.94
2024-02-08T23:10:45.587Z,83.88
2024-02-08T23:13:12.682Z,83.66
2024-02-08T23:15:47.350Z,83.75
2024-02-08T23:18:23.652Z,84.06
2024-02-08T23:20:55.029Z,83.65
2024-02-08T23:23:21.876Z,83.87
2024-02-08T23:25:49.750Z,83.80
2024-02-08T23:28:17.024Z,83.86
2024-02-08T23:30:45.980Z,83.91
2024-02-08T23:33:14.922Z,83.96
2024-02-08T23:35:41.882Z,83.62
2024-02-08T23:38:10.153Z,83.68
2024-02-08T23:40:37.108Z,83.80
2024-02-08T23:43:08.977Z,83.79
2024-02-08T23:45:40.670Z,83.67
2024-02-08T23:48:10.266Z,83.91
2024-02-08T23:50:37.761Z,83.82
2024-02-08T23:53:05.727Z,83.97
2024-02-08T23:55:36.763Z,83.91
2024-02-08T23:58:05.627Z,83.85
